METAR / TAF

La liste des METAR et des TAF n’est pas destinée pour un briefing météo pour des raisons techniques (disponibilité, cycle de renouvellement). Il faut plutôt utiliser le skybriefing de Skyguide ou le TAMSI (plateforme de self-briefing météo conçue par MétéoSuisse pour les entreprises dans le domaine de l’aéronautique, questions et demandes d’informations à 

Formulaire de contact

 

METAR Suisse

METAR     LSZH 192350Z VRB01KT CAVOK 02/01 Q1023 NOSIG=
METAR     LSZH 200020Z NIL=
METAR     LSGG 192350Z AUTO VRB01KT CAVOK 00/M01 Q1023 NOSIG=
METAR     LSGG 200020Z AUTO VRB01KT CAVOK M00/M02 Q1023 NOSIG=
METAR     LFSB 200000Z AUTO 27003KT 5000 BR NSC 01/M00 Q1023 NOSIG=
METAR     LSZB 192350Z AUTO VRB01KT CAVOK M01/M03 Q1023=
METAR     LSZB 200020Z AUTO 10003KT CAVOK M03/M04 Q1023=
METAR     LSZA 192350Z AUTO 36002KT 4100 BR NCD 02/01 Q1023=
METAR     LSZA 200020Z AUTO 03002KT 2900 BR NCD 02/02 Q1023=
METAR     LSZG 192350Z AUTO 00000KT CAVOK 01/01 Q1023=
METAR     LSZG 200020Z AUTO 00000KT 0150 FZFG VV001 00/00 Q1023=
METAR     LSZR 192350Z AUTO VRB03KT 9999 OVC080 05/03 Q1022=
METAR     LSZR 200020Z AUTO VRB02KT 9999 NSC 05/03 Q1022=
METAR     LSGS 192350Z AUTO 07003KT CAVOK 03/M04 Q1024=
METAR     LSGS 200020Z AUTO 08004KT 030V120 CAVOK 02/M04 Q1024=
METAR     LSGC 192350Z AUTO 00000KT 3500 BR NCD M02/M02 Q1022=
METAR     LSGC 200020Z AUTO 26001KT CAVOK M03/M03 Q1022=
METAR     LSZC 192350Z AUTO 23004KT CAVOK 02/M03 Q1023=
METAR     LSZC 200020Z AUTO VRB03KT CAVOK 01/M03 Q1023=
METAR     LSZL 192350Z NIL=
METAR     LSZL 200020Z AUTO 00000KT 6000NDV FEW038 01/00 Q1023 RMK=
METAR     LSZS 192350Z AUTO VRB02KT CAVOK M11/M14 Q1022=
METAR     LSZS 200020Z AUTO 22002KT CAVOK M11/M14 Q1022=
METAR     LSMA 192350Z AUTO 17003KT 9999NDV NCD 01/M02 Q1023 RMK=
METAR     LSMA 200020Z AUTO 21003KT 9999NDV NCD M00/M02 Q1023 RMK=
METAR     LSMD 192350Z NIL=
METAR     LSMD 200020Z NIL=
METAR     LSME 192350Z AUTO 00000KT 9999NDV FEW092 00/M02 Q1023 RMK=
METAR     LSME 200020Z AUTO 00000KT 9000NDV FEW095 M00/M01 Q1023
               RMK=
METAR     LSMM 192350Z AUTO 00000KT 9999NDV NCD M04/M05 Q1023 RMK=
METAR     LSMM 200020Z AUTO 00000KT 9999NDV NCD M02/M04 Q1023 RMK=
METAR     LSMP 192350Z AUTO 21002KT 4900NDV NCD 01/M01 Q1023 RMK=
METAR     LSMP 200020Z AUTO VRB02KT 6000NDV NCD 01/M01 Q1023 RMK=
METAR     LSMS 192350Z AUTO 07003KT CAVOK 03/M04 Q1024=
METAR     LSMS 200020Z AUTO 08004KT 030V120 CAVOK 02/M04 Q1024=
Actualisé le mercredi 20 février 2019 à 01h29

TAF Suisse

TAF     LSZH 192325Z 2000/2106 VRB02KT CAVOK TX12/2014Z TNM01/2005Z
             TNM01/2106Z BECMG 2000/2003 7000 NSC BECMG 2003/2006
             4000 BR PROB40 2004/2009 2000 BCFG BKN006 BECMG
             2008/2011 9999 SCT040 BECMG 2011/2014 CAVOK BECMG
             2100/2103 4000 BR NSC=
TAF     LSGG 192325Z 2000/2106 VRB03KT CAVOK TX09/2015Z TNM01/2006Z
             TNM01/2106Z=
TAF     LFSB 192300Z 2000/2024 VRB03KT 7000 NSC PROB40 TEMPO
             2000/2006 4000 BR=
TAF     LSZL 191725Z 1918/2003 VRB01KT 9999 FEW034 TEMPO 1918/1923
             CAVOK PROB30 1923/2003 4500 BR=
TAF     LSMA 191625Z 1917/2023 VRB03KT CAVOK=
TAF     LSMD 191625Z 1917/2023 VRB03KT 9999 FEW050 PROB30 2001/2009
             4000 BR NSC BECMG 2009/2012 CAVOK=
TAF     LSME 191625Z 1917/2023 VRB03KT CAVOK PROB30 2001/2009 4000
             BR NSC=
TAF     LSMM 191625Z 1917/2023 VRB03KT CAVOK=
TAF     LSMP 191625Z 1917/2023 VRB03KT CAVOK PROB40 2003/2009 4500
             BR NSC=
Actualisé le mercredi 20 février 2019 à 01h38